createdAt,value
2023-03-29T00:01:37.251Z,98488.47
2023-03-29T00:03:42.539Z,98479.84
2023-03-29T00:05:45.770Z,98475.53
2023-03-29T00:07:54.366Z,98462.97
2023-03-29T00:09:58.069Z,98471.91
2023-03-29T00:12:01.737Z,98484.41
2023-03-29T00:14:04.946Z,98487.59
2023-03-29T00:16:08.868Z,98476.94
2023-03-29T00:18:13.315Z,98489.78
2023-03-29T00:20:16.593Z,98472.28
2023-03-29T00:22:19.801Z,98474.59
2023-03-29T00:24:23.917Z,98468.56
2023-03-29T00:26:27.107Z,98463.88
2023-03-29T00:28:30.531Z,98480.16
2023-03-29T00:30:33.616Z,98478.31
2023-03-29T00:32:37.822Z,98488.44
2023-03-29T00:34:46.042Z,98475.28
2023-03-29T00:36:51.001Z,98475.78
2023-03-29T00:38:54.060Z,98472.09
2023-03-29T00:40:57.129Z,98474.44
2023-03-29T00:43:00.571Z,98469.88
2023-03-29T00:45:07.073Z,98467.94
2023-03-29T00:47:10.240Z,98470.53
2023-03-29T00:49:13.977Z,98472.25
2023-03-29T00:51:20.536Z,98466.94
2023-03-29T00:53:28.390Z,98468.72
2023-03-29T00:55:36.385Z,98465.19
2023-03-29T00:57:40.979Z,98472.97
2023-03-29T00:59:44.684Z,98466.03
2023-03-29T01:01:54.314Z,98462.50
2023-03-29T01:04:03.150Z,98450.69
2023-03-29T01:06:08.689Z,98456.81
2023-03-29T01:08:18.075Z,98456.97
2023-03-29T01:10:27.575Z,98459.66
2023-03-29T01:12:35.892Z,98447.94
2023-03-29T01:14:41.811Z,98445.44
2023-03-29T01:16:47.489Z,98438.53
2023-03-29T01:18:52.222Z,98436.84
2023-03-29T01:21:16.625Z,98430.91
2023-03-29T01:23:37.952Z,98427.56
2023-03-29T01:25:45.508Z,98418.41
2023-03-29T01:27:52.454Z,98412.47
2023-03-29T01:29:57.982Z,98412.66
2023-03-29T01:32:04.352Z,98402.50
2023-03-29T01:34:11.423Z,98408.69
2023-03-29T01:36:19.229Z,98401.72
2023-03-29T01:38:25.487Z,98391.69
2023-03-29T01:40:28.603Z,98396.22
2023-03-29T01:42:36.961Z,98382.63
2023-03-29T01:44:48.521Z,98381.91
2023-03-29T01:46:54.840Z,98380.22
2023-03-29T01:48:59.824Z,98372.41
2023-03-29T01:51:06.910Z,98368.91
2023-03-29T01:53:13.061Z,98366.47
2023-03-29T01:55:20.585Z,98362.28
2023-03-29T01:57:24.992Z,98369.06
2023-03-29T01:59:31.084Z,98367.22
2023-03-29T02:01:38.676Z,98363.78
2023-03-29T02:03:44.086Z,98362.75
2023-03-29T02:05:47.274Z,98357.56
2023-03-29T02:07:51.543Z,98357.56
2023-03-29T02:09:55.232Z,98355.81
2023-03-29T02:12:00.662Z,98356.56
2023-03-29T02:14:03.879Z,98353.88
2023-03-29T02:16:12.345Z,98350.94
2023-03-29T02:18:18.776Z,98362.41
2023-03-29T02:20:25.627Z,98351.38
2023-03-29T02:22:30.372Z,98351.44
2023-03-29T02:24:34.822Z,98344.75
2023-03-29T02:26:38.243Z,98343.09
2023-03-29T02:28:42.309Z,98324.72
2023-03-29T02:30:50.998Z,98322.22
2023-03-29T02:32:57.671Z,98316.16
2023-03-29T02:35:06.671Z,98317.09
2023-03-29T02:37:11.807Z,98312.81
2023-03-29T02:39:16.371Z,98312.81
2023-03-29T02:41:19.791Z,98320.63
2023-03-29T02:43:25.923Z,98319.63
2023-03-29T02:45:29.920Z,98314.50
2023-03-29T02:47:37.157Z,98312.81
2023-03-29T02:49:40.609Z,98311.91
2023-03-29T02:51:47.400Z,98313.56
2023-03-29T02:53:53.217Z,98318.75
2023-03-29T02:55:56.585Z,98321.19
2023-03-29T02:57:59.840Z,98319.34
2023-03-29T03:00:09.796Z,98312.47
2023-03-29T03:02:13.732Z,98306.28
2023-03-29T03:04:18.426Z,98305.41
2023-03-29T03:06:22.152Z,98301.16
2023-03-29T03:08:27.805Z,98290.94
2023-03-29T03:10:30.993Z,98285.84
2023-03-29T03:12:34.069Z,98279.78
2023-03-29T03:14:37.125Z,98279.03
2023-03-29T03:16:40.441Z,98276.44
2023-03-29T03:18:45.890Z,98280.72
2023-03-29T03:20:56.799Z,98273.84
2023-03-29T03:23:01.143Z,98271.97
2023-03-29T03:25:06.449Z,98271.06
2023-03-29T03:27:09.581Z,98267.56
2023-03-29T03:29:12.864Z,98264.09
2023-03-29T03:31:42.981Z,98260.50
2023-03-29T03:34:01.651Z,98263.84
2023-03-29T03:36:19.977Z,98259.41
2023-03-29T03:38:23.006Z,98254.13
2023-03-29T03:40:34.337Z,98250.56
2023-03-29T03:42:37.462Z,98251.44
2023-03-29T03:44:40.681Z,98256.63
2023-03-29T03:47:03.940Z,98252.25
2023-03-29T03:49:07.141Z,98263.31
2023-03-29T03:51:15.305Z,98264.81
2023-03-29T03:53:19.051Z,98264.56
2023-03-29T03:55:44.720Z,98263.44
2023-03-29T03:57:52.043Z,98263.34
2023-03-29T03:59:56.395Z,98265.03
2023-03-29T04:02:16.317Z,98266.63
2023-03-29T04:04:20.721Z,98275.25
2023-03-29T04:06:46.887Z,98266.72
2023-03-29T04:09:09.858Z,98269.31
2023-03-29T04:11:17.620Z,98262.44
2023-03-29T04:13:21.614Z,98271.91
2023-03-29T04:16:03.826Z,98257.97
2023-03-29T04:18:07.804Z,98260.75
2023-03-29T04:20:17.577Z,98260.66
2023-03-29T04:22:21.484Z,98266.72
2023-03-29T04:24:25.392Z,98264.09
2023-03-29T04:26:50.226Z,98268.44
2023-03-29T04:28:58.196Z,98267.63
2023-03-29T04:31:15.656Z,98270.22
2023-03-29T04:33:41.855Z,98274.78
2023-03-29T04:35:45.958Z,98271.41
2023-03-29T04:37:54.594Z,98271.41
2023-03-29T04:40:00.271Z,98270.56
2023-03-29T04:42:08.836Z,98278.38
2023-03-29T04:44:12.542Z,98268.97
2023-03-29T04:46:16.466Z,98271.50
2023-03-29T04:48:38.559Z,98280.25
2023-03-29T04:50:41.685Z,98275.94
2023-03-29T04:52:45.602Z,98280.31
2023-03-29T04:54:48.782Z,98279.47
2023-03-29T04:57:04.128Z,98281.31
2023-03-29T04:59:34.745Z,98277.03
2023-03-29T05:01:42.460Z,98279.84
2023-03-29T05:03:45.626Z,98282.31
2023-03-29T05:05:55.047Z,98282.25
2023-03-29T05:07:58.110Z,98289.22
2023-03-29T05:10:09.823Z,98284.84
2023-03-29T05:12:13.105Z,98285.78
2023-03-29T05:14:27.905Z,98289.31
2023-03-29T05:16:32.671Z,98286.53
2023-03-29T05:18:36.948Z,98285.63
2023-03-29T05:20:40.535Z,98294.97
2023-03-29T05:22:44.775Z,98292.47
2023-03-29T05:24:55.191Z,98294.31
2023-03-29T05:26:58.962Z,98295.16
2023-03-29T05:29:04.551Z,98293.31
2023-03-29T05:31:08.054Z,98286.44
2023-03-29T05:33:14.739Z,98284.56
2023-03-29T05:35:17.758Z,98279.28
2023-03-29T05:37:21.113Z,98278.38
2023-03-29T05:39:29.930Z,98279.28
2023-03-29T05:41:33.591Z,98278.38
2023-03-29T05:43:39.540Z,98268.81
2023-03-29T05:45:43.751Z,98272.25
2023-03-29T05:47:47.141Z,98269.66
2023-03-29T05:49:51.893Z,98268.81
2023-03-29T05:51:59.125Z,98274.69
2023-03-29T05:54:03.821Z,98272.00
2023-03-29T05:56:08.990Z,98266.72
2023-03-29T05:58:13.423Z,98275.97
2023-03-29T06:00:24.422Z,98274.16
2023-03-29T06:02:36.913Z,98275.63
2023-03-29T06:04:40.379Z,98279.00
2023-03-29T06:06:55.114Z,98279.81
2023-03-29T06:08:59.070Z,98284.19
2023-03-29T06:11:15.791Z,98279.91
2023-03-29T06:13:38.802Z,98276.50
2023-03-29T06:15:42.050Z,98286.03
2023-03-29T06:17:47.206Z,98294.59
2023-03-29T06:19:53.060Z,98289.41
2023-03-29T06:22:00.712Z,98300.53
2023-03-29T06:24:06.823Z,98294.34
2023-03-29T06:26:15.694Z,98299.25
2023-03-29T06:28:19.579Z,98297.41
2023-03-29T06:30:22.759Z,98308.44
2023-03-29T06:32:29.839Z,98295.19
2023-03-29T06:34:38.581Z,98302.91
2023-03-29T06:37:18.271Z,98304.47
2023-03-29T06:39:23.024Z,98310.16
2023-03-29T06:41:46.319Z,98297.16
2023-03-29T06:44:21.547Z,98315.28
2023-03-29T06:46:37.527Z,98317.88
2023-03-29T06:48:45.238Z,98310.81
2023-03-29T06:50:48.916Z,98324.41
2023-03-29T06:52:54.749Z,98336.28
2023-03-29T06:54:58.058Z,98324.13
2023-03-29T06:57:02.690Z,98328.28
2023-03-29T06:59:10.505Z,98329.78
2023-03-29T07:01:28.810Z,98334.09
2023-03-29T07:03:46.634Z,98334.44
2023-03-29T07:05:52.241Z,98340.22
2023-03-29T07:08:00.349Z,98338.97
2023-03-29T07:10:20.026Z,98333.22
2023-03-29T07:12:44.689Z,98336.41
2023-03-29T07:14:48.982Z,98338.16
2023-03-29T07:16:52.275Z,98337.06
2023-03-29T07:19:03.775Z,98332.41
2023-03-29T07:21:30.182Z,98333.72
2023-03-29T07:23:34.816Z,98335.94
2023-03-29T07:25:38.444Z,98346.00
2023-03-29T07:27:42.791Z,98345.81
2023-03-29T07:29:46.635Z,98344.56
2023-03-29T07:31:50.542Z,98342.56
2023-03-29T07:34:12.115Z,98346.53
2023-03-29T07:36:15.747Z,98352.25
2023-03-29T07:38:18.946Z,98345.78
2023-03-29T07:40:28.121Z,98350.63
2023-03-29T07:42:36.522Z,98353.75
2023-03-29T07:44:41.699Z,98363.81
2023-03-29T07:46:45.005Z,98365.09
2023-03-29T07:48:48.237Z,98359.50
2023-03-29T07:50:51.516Z,98362.66
2023-03-29T07:53:00.801Z,98361.34
2023-03-29T07:55:06.179Z,98360.84
2023-03-29T07:57:27.740Z,98367.31
2023-03-29T07:59:33.170Z,98368.63
2023-03-29T08:01:44.683Z,98379.59
2023-03-29T08:04:08.804Z,98378.38
2023-03-29T08:06:30.941Z,98372.94
2023-03-29T08:08:34.168Z,98378.69
2023-03-29T08:10:42.805Z,98381.09
2023-03-29T08:13:09.316Z,98372.03
2023-03-29T08:15:23.976Z,98378.72
2023-03-29T08:17:30.307Z,98371.66
2023-03-29T08:19:33.976Z,98372.06
2023-03-29T08:21:41.068Z,98369.06
2023-03-29T08:23:44.189Z,98367.72
2023-03-29T08:25:54.526Z,98365.63
2023-03-29T08:27:57.813Z,98368.56
2023-03-29T08:30:14.813Z,98368.91
2023-03-29T08:32:18.105Z,98371.00
2023-03-29T08:34:23.945Z,98374.16
2023-03-29T08:36:41.356Z,98372.06
2023-03-29T08:38:56.276Z,98377.69
2023-03-29T08:40:59.457Z,98371.00
2023-03-29T08:43:23.993Z,98379.06
2023-03-29T08:45:52.448Z,98382.19
2023-03-29T08:48:00.800Z,98384.25
2023-03-29T08:50:05.061Z,98379.47
2023-03-29T08:52:22.612Z,98375.56
2023-03-29T08:54:27.905Z,98383.50
2023-03-29T08:57:04.979Z,98386.94
2023-03-29T08:59:19.471Z,98386.16
2023-03-29T09:01:26.438Z,98383.94
2023-03-29T09:03:34.292Z,98381.00
2023-03-29T09:05:47.471Z,98385.19
2023-03-29T09:07:56.057Z,98379.31
2023-03-29T09:09:59.541Z,98378.50
2023-03-29T09:12:26.082Z,98370.75
2023-03-29T09:14:47.328Z,98363.63
2023-03-29T09:16:57.577Z,98360.06
2023-03-29T09:19:08.046Z,98365.78
2023-03-29T09:21:18.010Z,98360.88
2023-03-29T09:23:47.044Z,98363.53
2023-03-29T09:26:12.523Z,98371.25
2023-03-29T09:28:38.236Z,98365.09
2023-03-29T09:30:42.801Z,98367.03
2023-03-29T09:32:53.958Z,98368.97
2023-03-29T09:35:14.221Z,98366.28
2023-03-29T09:37:24.641Z,98361.41
2023-03-29T09:39:28.774Z,98371.06
2023-03-29T09:41:42.194Z,98364.31
2023-03-29T09:43:48.559Z,98369.97
2023-03-29T09:45:58.442Z,98367.69
2023-03-29T09:48:07.976Z,98372.00
2023-03-29T09:50:27.253Z,98366.50
2023-03-29T09:52:33.993Z,98364.13
2023-03-29T09:54:48.200Z,98366.00
2023-03-29T09:57:21.144Z,98359.09
2023-03-29T09:59:24.450Z,98353.56
2023-03-29T10:01:37.154Z,98358.78
2023-03-29T10:03:43.870Z,98352.78
2023-03-29T10:05:51.616Z,98344.38
2023-03-29T10:08:01.127Z,98341.13
2023-03-29T10:10:08.757Z,98347.63
2023-03-29T10:12:12.453Z,98348.34
2023-03-29T10:14:18.790Z,98347.38
2023-03-29T10:16:23.800Z,98350.28
2023-03-29T10:18:27.752Z,98348.03
2023-03-29T10:20:32.390Z,98352.06
2023-03-29T10:22:37.978Z,98351.22
2023-03-29T10:24:41.451Z,98349.19
2023-03-29T10:26:48.035Z,98362.19
2023-03-29T10:28:52.826Z,98357.41
2023-03-29T10:30:57.812Z,98351.44
2023-03-29T10:33:00.973Z,98356.28
2023-03-29T10:35:10.623Z,98354.28
2023-03-29T10:37:16.651Z,98347.06
2023-03-29T10:39:20.415Z,98342.63
2023-03-29T10:41:24.106Z,98349.41
2023-03-29T10:43:29.738Z,98343.91
2023-03-29T10:45:36.503Z,98348.41
2023-03-29T10:47:39.619Z,98352.56
2023-03-29T10:49:44.232Z,98343.91
2023-03-29T10:51:49.323Z,98340.44
2023-03-29T10:53:54.000Z,98337.09
2023-03-29T10:56:10.104Z,98337.34
2023-03-29T10:58:26.449Z,98332.97
2023-03-29T11:00:33.886Z,98325.56
2023-03-29T11:03:04.317Z,98324.72
2023-03-29T11:05:22.402Z,98323.47
2023-03-29T11:07:31.416Z,98329.44
2023-03-29T11:09:44.356Z,98328.22
2023-03-29T11:12:15.198Z,98320.88
2023-03-29T11:14:28.354Z,98316.28
2023-03-29T11:16:34.978Z,98319.88
2023-03-29T11:19:13.123Z,98304.59
2023-03-29T11:21:25.071Z,98303.19
2023-03-29T11:23:37.533Z,98295.28
2023-03-29T11:25:50.382Z,98286.69
2023-03-29T11:28:00.348Z,98295.63
2023-03-29T11:30:14.781Z,98295.78
2023-03-29T11:32:25.117Z,98285.56
2023-03-29T11:34:32.558Z,98298.88
2023-03-29T11:36:39.940Z,98293.19
2023-03-29T11:38:50.307Z,98294.88
2023-03-29T11:40:59.430Z,98296.53
2023-03-29T11:43:04.576Z,98295.97
2023-03-29T11:45:13.901Z,98294.47
2023-03-29T11:47:21.843Z,98300.00
2023-03-29T11:49:26.585Z,98290.69
2023-03-29T11:51:33.910Z,98297.09
2023-03-29T11:53:42.647Z,98299.59
2023-03-29T11:55:46.298Z,98285.56
2023-03-29T11:57:53.882Z,98288.06
2023-03-29T12:00:01.808Z,98284.16
2023-03-29T12:02:21.971Z,98282.06
2023-03-29T12:04:31.505Z,98283.47
2023-03-29T12:06:38.488Z,98275.31
2023-03-29T12:08:44.996Z,98281.97
2023-03-29T12:10:52.600Z,98269.34
2023-03-29T12:13:00.741Z,98266.56
2023-03-29T12:15:07.578Z,98269.91
2023-03-29T12:17:13.935Z,98265.03
2023-03-29T12:19:20.158Z,98258.09
2023-03-29T12:21:24.676Z,98264.06
2023-03-29T12:23:31.063Z,98263.78
2023-03-29T12:25:39.449Z,98262.66
2023-03-29T12:27:49.315Z,98257.09
2023-03-29T12:30:21.086Z,98254.47
2023-03-29T12:32:37.633Z,98256.81
2023-03-29T12:35:11.615Z,98262.66
2023-03-29T12:37:46.899Z,98251.16
2023-03-29T12:40:14.133Z,98249.34
2023-03-29T12:42:45.572Z,98240.78
2023-03-29T12:45:03.832Z,98246.28
2023-03-29T12:47:18.980Z,98246.00
2023-03-29T12:49:28.387Z,98241.41
2023-03-29T12:51:32.954Z,98233.09
2023-03-29T12:53:37.456Z,98238.09
2023-03-29T12:55:50.633Z,98230.47
2023-03-29T12:58:03.583Z,98236.72
2023-03-29T13:00:21.297Z,98224.81
2023-03-29T13:02:36.128Z,98239.63
2023-03-29T13:04:50.871Z,98227.16
2023-03-29T13:07:03.877Z,98226.44
2023-03-29T13:09:22.715Z,98241.31
2023-03-29T13:11:29.186Z,98231.59
2023-03-29T13:13:35.039Z,98235.75
2023-03-29T13:15:40.227Z,98230.34
2023-03-29T13:17:48.863Z,98234.50
2023-03-29T13:19:59.402Z,98232.16
2023-03-29T13:22:13.897Z,98230.47
2023-03-29T13:24:56.547Z,98228.22
2023-03-29T13:27:02.526Z,98230.88
2023-03-29T13:29:34.782Z,98228.66
2023-03-29T13:31:41.915Z,98233.66
2023-03-29T13:33:55.955Z,98237.94
2023-03-29T13:36:05.008Z,98233.22
2023-03-29T13:38:16.127Z,98225.75
2023-03-29T13:40:44.197Z,98231.28
2023-03-29T13:42:59.499Z,98221.59
2023-03-29T13:45:09.810Z,98225.50
2023-03-29T13:47:28.732Z,98221.88
2023-03-29T13:49:33.911Z,98221.03
2023-03-29T13:51:42.061Z,98225.03
2023-03-29T13:53:47.754Z,98217.25
2023-03-29T13:55:53.814Z,98218.31
2023-03-29T13:58:00.990Z,98218.69
2023-03-29T14:00:11.775Z,98216.34
2023-03-29T14:02:22.911Z,98219.84
2023-03-29T14:04:27.850Z,98221.63
2023-03-29T14:06:33.290Z,98217.50
2023-03-29T14:08:40.975Z,98201.53
2023-03-29T14:10:45.839Z,98202.50
2023-03-29T14:12:49.094Z,98207.47
2023-03-29T14:14:59.263Z,98202.06
2023-03-29T14:17:02.847Z,98194.72
2023-03-29T14:19:14.508Z,98208.34
2023-03-29T14:21:18.685Z,98199.06
2023-03-29T14:23:23.070Z,98212.69
2023-03-29T14:25:29.335Z,98209.81
2023-03-29T14:27:33.501Z,98205.81
2023-03-29T14:29:37.147Z,98196.94
2023-03-29T14:31:41.950Z,98208.19
2023-03-29T14:33:45.153Z,98200.00
2023-03-29T14:35:49.843Z,98203.09
2023-03-29T14:37:53.259Z,98199.50
2023-03-29T14:39:56.894Z,98210.84
2023-03-29T14:42:00.374Z,98202.53
2023-03-29T14:44:04.621Z,98200.19
2023-03-29T14:46:08.386Z,98193.38
2023-03-29T14:48:15.023Z,98190.31
2023-03-29T14:50:21.388Z,98190.31
2023-03-29T14:52:26.455Z,98189.63
2023-03-29T14:54:31.820Z,98185.75
2023-03-29T14:56:35.395Z,98194.34
2023-03-29T14:58:38.462Z,98196.72
2023-03-29T15:00:43.403Z,98193.63
2023-03-29T15:02:51.053Z,98186.88
2023-03-29T15:04:58.862Z,98189.63
2023-03-29T15:07:02.096Z,98178.97
2023-03-29T15:09:07.092Z,98176.34
2023-03-29T15:11:15.530Z,98170.94
2023-03-29T15:13:23.634Z,98167.88
2023-03-29T15:15:27.486Z,98167.63
2023-03-29T15:17:47.002Z,98165.25
2023-03-29T15:19:54.654Z,98160.25
2023-03-29T15:21:58.853Z,98153.19
2023-03-29T15:24:06.188Z,98152.34
2023-03-29T15:26:13.666Z,98146.41
2023-03-29T15:28:28.253Z,98147.91
2023-03-29T15:30:37.494Z,98144.19
2023-03-29T15:32:41.626Z,98132.09
2023-03-29T15:34:44.955Z,98136.28
2023-03-29T15:36:48.700Z,98134.59
2023-03-29T15:38:52.217Z,98135.31
2023-03-29T15:40:56.744Z,98135.31
2023-03-29T15:43:00.174Z,98129.06
2023-03-29T15:45:06.221Z,98124.06
2023-03-29T15:47:10.892Z,98128.66
2023-03-29T15:49:14.847Z,98126.84
2023-03-29T15:51:17.940Z,98121.56
2023-03-29T15:53:21.876Z,98117.16
2023-03-29T15:55:26.222Z,98118.81
2023-03-29T15:57:30.860Z,98115.22
2023-03-29T15:59:34.350Z,98118.53
2023-03-29T16:01:39.017Z,98119.66
2023-03-29T16:03:47.463Z,98105.09
2023-03-29T16:05:54.151Z,98109.69
2023-03-29T16:07:57.257Z,98108.81
2023-03-29T16:10:00.408Z,98108.56
2023-03-29T16:12:03.631Z,98111.31
2023-03-29T16:14:15.303Z,98103.56
2023-03-29T16:16:18.421Z,98108.16
2023-03-29T16:18:21.693Z,98106.06
2023-03-29T16:20:24.940Z,98111.34
2023-03-29T16:22:29.424Z,98108.84
2023-03-29T16:24:33.275Z,98114.09
2023-03-29T16:26:36.458Z,98116.59
2023-03-29T16:28:39.541Z,98112.34
2023-03-29T16:30:44.027Z,98108.84
2023-03-29T16:32:47.211Z,98105.66
2023-03-29T16:34:50.389Z,98108.03
2023-03-29T16:36:53.994Z,98108.03
2023-03-29T16:38:57.220Z,98098.44
2023-03-29T16:41:00.442Z,98101.94
2023-03-29T16:43:03.836Z,98104.56
2023-03-29T16:45:08.445Z,98098.59
2023-03-29T16:47:13.219Z,98104.72
2023-03-29T16:49:18.297Z,98103.03
2023-03-29T16:51:21.803Z,98106.63
2023-03-29T16:53:24.935Z,98108.72
2023-03-29T16:55:28.462Z,98099.00
2023-03-29T16:57:31.666Z,98098.19
2023-03-29T16:59:34.775Z,98102.78
2023-03-29T17:01:38.584Z,98102.06
2023-03-29T17:03:43.791Z,98096.94
2023-03-29T17:05:50.515Z,98097.88
2023-03-29T17:07:53.565Z,98086.66
2023-03-29T17:09:56.952Z,98089.41
2023-03-29T17:12:00.030Z,98090.56
2023-03-29T17:14:03.234Z,98083.88
2023-03-29T17:16:07.519Z,98085.97
2023-03-29T17:18:10.941Z,98082.09
2023-03-29T17:20:15.508Z,98081.41
2023-03-29T17:22:18.778Z,98086.94
2023-03-29T17:24:21.914Z,98080.28
2023-03-29T17:26:25.087Z,98084.19
2023-03-29T17:28:28.226Z,98088.72
2023-03-29T17:30:31.417Z,98091.22
2023-03-29T17:32:35.576Z,98094.97
2023-03-29T17:34:38.958Z,98087.22
2023-03-29T17:36:43.482Z,98090.94
2023-03-29T17:38:48.922Z,98094.53
2023-03-29T17:40:55.388Z,98090.53
2023-03-29T17:42:58.539Z,98093.44
2023-03-29T17:45:01.568Z,98089.66
2023-03-29T17:47:05.028Z,98079.69
2023-03-29T17:49:08.251Z,98091.47
2023-03-29T17:51:11.344Z,98088.84
2023-03-29T17:53:15.734Z,98077.34
2023-03-29T17:55:23.260Z,98061.56
2023-03-29T17:57:26.622Z,98054.47
2023-03-29T17:59:29.844Z,98045.03
2023-03-29T18:01:33.057Z,98051.13
2023-03-29T18:03:36.366Z,98051.09
2023-03-29T18:05:39.386Z,98056.59
2023-03-29T18:07:42.741Z,98072.47
2023-03-29T18:09:47.296Z,98061.28
2023-03-29T18:11:50.381Z,98061.41
2023-03-29T18:13:54.096Z,98048.81
2023-03-29T18:15:57.580Z,98046.16
2023-03-29T18:18:00.849Z,98047.91
2023-03-29T18:20:09.303Z,98055.09
2023-03-29T18:22:12.506Z,98053.41
2023-03-29T18:24:15.856Z,98042.91
2023-03-29T18:26:22.866Z,98037.09
2023-03-29T18:28:26.156Z,98027.38
2023-03-29T18:30:29.297Z,98028.47
2023-03-29T18:32:35.337Z,98038.00
2023-03-29T18:34:39.288Z,98048.38
2023-03-29T18:36:42.821Z,98047.56
2023-03-29T18:38:45.937Z,98033.47
2023-03-29T18:40:49.458Z,98026.09
2023-03-29T18:42:53.937Z,98039.34
2023-03-29T18:44:57.135Z,98035.91
2023-03-29T18:47:00.337Z,98036.88
2023-03-29T18:49:03.713Z,98038.53
2023-03-29T18:51:07.904Z,98035.22
2023-03-29T18:53:10.994Z,98038.66
2023-03-29T18:55:14.143Z,98041.16
2023-03-29T18:57:17.352Z,98033.97
2023-03-29T18:59:21.966Z,98036.47
2023-03-29T19:01:25.498Z,98033.97
2023-03-29T19:03:28.853Z,98033.97
2023-03-29T19:05:32.740Z,98030.66
2023-03-29T19:07:36.670Z,98032.34
2023-03-29T19:09:41.618Z,98031.75
2023-03-29T19:11:47.886Z,98035.34
2023-03-29T19:13:52.726Z,98032.00
2023-03-29T19:15:57.397Z,98027.88
2023-03-29T19:18:00.705Z,98030.88
2023-03-29T19:20:09.912Z,98033.63
2023-03-29T19:22:13.030Z,98040.78
2023-03-29T19:24:16.556Z,98033.16
2023-03-29T19:26:19.865Z,98048.22
2023-03-29T19:28:23.240Z,98058.97
2023-03-29T19:30:27.130Z,98049.59
2023-03-29T19:32:33.652Z,98032.44
2023-03-29T19:34:37.332Z,98034.38
2023-03-29T19:36:41.071Z,98036.25
2023-03-29T19:38:44.844Z,98039.28
2023-03-29T19:40:48.504Z,98043.13
2023-03-29T19:42:51.774Z,98040.63
2023-03-29T19:44:54.873Z,98032.03
2023-03-29T19:46:58.335Z,98027.91
2023-03-29T19:49:05.489Z,98032.56
2023-03-29T19:51:09.182Z,98025.78
2023-03-29T19:53:13.436Z,98028.66
2023-03-29T19:55:16.790Z,98027.00
2023-03-29T19:57:19.883Z,98015.09
2023-03-29T19:59:23.018Z,98009.25
2023-03-29T20:01:27.351Z,97992.94
2023-03-29T20:03:33.942Z,97994.88
2023-03-29T20:05:39.869Z,97994.25
2023-03-29T20:07:42.957Z,97992.75
2023-03-29T20:09:46.041Z,97993.94
2023-03-29T20:11:49.242Z,97988.25
2023-03-29T20:13:52.398Z,97993.75
2023-03-29T20:15:55.485Z,97977.44
2023-03-29T20:18:00.302Z,97969.00
2023-03-29T20:20:08.253Z,97972.84
2023-03-29T20:22:13.100Z,97980.97
2023-03-29T20:24:16.649Z,97962.88
2023-03-29T20:26:19.702Z,97963.38
2023-03-29T20:28:23.601Z,97958.16
2023-03-29T20:30:26.817Z,97956.03
2023-03-29T20:32:30.027Z,97957.13
2023-03-29T20:34:33.481Z,97951.03
2023-03-29T20:36:37.197Z,97951.16
2023-03-29T20:38:41.777Z,97947.72
2023-03-29T20:40:44.895Z,97948.69
2023-03-29T20:42:48.973Z,97944.41
2023-03-29T20:44:53.868Z,97944.53
2023-03-29T20:47:03.808Z,97942.88
2023-03-29T20:49:08.949Z,97938.72
2023-03-29T20:51:12.074Z,97933.75
2023-03-29T20:53:16.363Z,97931.25
2023-03-29T20:55:25.716Z,97936.59
2023-03-29T20:57:30.514Z,97933.25
2023-03-29T20:59:34.398Z,97943.03
2023-03-29T21:01:40.477Z,97936.13
2023-03-29T21:03:44.087Z,97935.44
2023-03-29T21:05:47.268Z,97937.34
2023-03-29T21:07:51.009Z,97922.69
2023-03-29T21:09:54.176Z,97925.31
2023-03-29T21:11:58.641Z,97927.25
2023-03-29T21:14:02.541Z,97926.38
2023-03-29T21:16:06.146Z,97920.44
2023-03-29T21:18:09.306Z,97927.72
2023-03-29T21:20:13.153Z,97919.88
2023-03-29T21:22:17.615Z,97917.50
2023-03-29T21:24:20.677Z,97922.00
2023-03-29T21:26:23.827Z,97915.25
2023-03-29T21:28:28.330Z,97917.03
2023-03-29T21:30:32.242Z,97911.91
2023-03-29T21:32:35.470Z,97916.44
2023-03-29T21:34:38.743Z,97912.19
2023-03-29T21:36:42.401Z,97906.22
2023-03-29T21:38:45.448Z,97899.34
2023-03-29T21:40:48.462Z,97901.19
2023-03-29T21:42:51.589Z,97895.97
2023-03-29T21:44:56.216Z,97886.59
2023-03-29T21:46:59.430Z,97893.59
2023-03-29T21:49:02.735Z,97890.41
2023-03-29T21:51:06.644Z,97885.28
2023-03-29T21:53:09.909Z,97874.13
2023-03-29T21:55:16.123Z,97876.88
2023-03-29T21:57:19.356Z,97882.22
2023-03-29T21:59:22.440Z,97875.56
2023-03-29T22:01:27.160Z,97871.28
2023-03-29T22:03:30.588Z,97869.50
2023-03-29T22:05:33.811Z,97857.50
2023-03-29T22:07:38.660Z,97871.50
2023-03-29T22:09:42.628Z,97865.00
2023-03-29T22:11:45.874Z,97868.69
2023-03-29T22:13:48.917Z,97862.63
2023-03-29T22:15:59.306Z,97861.19
2023-03-29T22:18:05.152Z,97866.44
2023-03-29T22:20:12.752Z,97862.28
2023-03-29T22:22:16.353Z,97865.84
2023-03-29T22:24:19.723Z,97858.25
2023-03-29T22:26:24.854Z,97860.88
2023-03-29T22:28:27.846Z,97866.09
2023-03-29T22:30:30.980Z,97867.03
2023-03-29T22:32:34.071Z,97861.09
2023-03-29T22:34:38.784Z,97869.91
2023-03-29T22:36:41.835Z,97854.19
2023-03-29T22:38:45.124Z,97866.56
2023-03-29T22:40:48.517Z,97861.84
2023-03-29T22:42:51.621Z,97864.56
2023-03-29T22:44:54.587Z,97863.97
2023-03-29T22:46:57.553Z,97865.03
2023-03-29T22:49:00.771Z,97869.44
2023-03-29T22:51:06.618Z,97869.44
2023-03-29T22:53:10.703Z,97859.00
2023-03-29T22:55:13.744Z,97868.47
2023-03-29T22:57:16.930Z,97859.13
2023-03-29T22:59:20.080Z,97867.91
2023-03-29T23:01:23.208Z,97866.34
2023-03-29T23:03:26.594Z,97861.13
2023-03-29T23:05:29.700Z,97858.63
2023-03-29T23:07:36.255Z,97867.19
2023-03-29T23:09:39.328Z,97859.22
2023-03-29T23:11:42.347Z,97862.53
2023-03-29T23:13:48.624Z,97863.25
2023-03-29T23:15:52.460Z,97857.19
2023-03-29T23:17:56.361Z,97864.09
2023-03-29T23:19:59.397Z,97861.50
2023-03-29T23:22:02.456Z,97847.31
2023-03-29T23:24:07.586Z,97860.50
2023-03-29T23:26:11.193Z,97856.63
2023-03-29T23:28:14.857Z,97857.56
2023-03-29T23:30:19.754Z,97852.34
2023-03-29T23:32:22.806Z,97847.09
2023-03-29T23:34:25.983Z,97847.09
2023-03-29T23:36:31.404Z,97844.72
2023-03-29T23:38:35.501Z,97835.22
2023-03-29T23:40:39.951Z,97840.31
2023-03-29T23:42:44.596Z,97842.13
2023-03-29T23:44:47.705Z,97844.59
2023-03-29T23:46:50.800Z,97844.59
2023-03-29T23:48:53.858Z,97842.13
2023-03-29T23:50:57.908Z,97845.66
2023-03-29T23:53:00.885Z,97837.00
2023-03-29T23:55:05.320Z,97846.53
2023-03-29T23:57:10.829Z,97854.38
2023-03-29T23:59:14.002Z,97850.06
